2P2

Washington Island Airport

Washington Island, Wisconsin, USA
METAR K2P2 181335Z AUTO 32007KT 10SM CLR M10/M14 A3013 RMK AO2 T11051138
Observed Flight Rules
Jan-18 @ 13:35 UTC (27 minutes ago) Visual Flight Rules
Wind Visibility Clouds
320° at 7 knots 10 miles
  • Clear skies
Temperatures Readings
Current -11°C / 12°F
Dewpoint -14°C / 7°F
Humidity 79%
Altimeter 30.13" Hg
Pressure 1020.32 hPa
Elevation 199
METAR K2P2 181335Z AUTO 32007KT 10SM CLR M10/M14 A3013 RMK AO2 T11051138
Observed Flight Rules
Jan-18 @ 13:35 UTC
(27 minutes ago)
VFR
Wind Visibility
320° at 7 knots 10 miles
Clouds
  • Clear skies
Temperature Dewpoint
-11°C / 12°F -14°C / 7°F
Humidity Altimeter Pressure
79% 30.13" Hg 1020.32 hPa